M I D A S
Marine Information and Data Acquisition System
Tripno 1044 of the Zeeleeuw from 2006-03-03 08:01:59 to 2006-03-03 13:42:36
Back to CruiseResearch ActivitiesStationsMapUnderway DataData graphs

EquipmentUnitsComment
TimeDGPSUTC
LatitudeDGPSDM.mWGS84
LongitudeDGPSDM.mWGS84
TemperatureSBE03/SBE38deg celciusITS90
ConductivitySBE21S/mITS90
SalinitySBE21 Practical Salinity Units
ChlorophylAChelsea fluorimeterg/lCalibrated in Aceton
Missing or incorrect values are displayed as -999
Sea surface data collected by the RV Zeeleeuw from 2006-03-03 07:50:42 to 2006-03-03 13:57:16
Time Latitude Longitude Temperature Conductivity Salinity ChlorophylA
2006-03-03 07:51:48 51°13.613 2°56.039 -999 3.610719 29.107882 10.781076
2006-03-03 07:52:48 51°13.639 2°55.943 -999 3.610926 29.107862 10.747366
2006-03-03 07:53:48 51°13.678 2°55.819 -999 3.611029 29.108164 10.747366
2006-03-03 07:54:47 51°13.708 2°55.717 -999 3.611237 29.10752 10.781076
2006-03-03 07:55:48 51°13.725 2°55.736 -999 2.851485 22.035281 14.4554
2006-03-03 07:56:47 51°13.723 2°55.721 -999 2.432495 25.119865 11.792358
2006-03-03 07:57:48 51°13.747 2°55.715 -999 2.419689 25.402174 10.410272
2006-03-03 07:58:47 51°13.825 2°55.64 -999 2.304726 24.176758 8.960768
2006-03-03 07:59:47 51°13.949 2°55.54 -999 2.275602 23.813651 7.477554
2006-03-03 08:00:47 51°14.084 2°55.445 -999 2.508231 26.618848 6.904494
2006-03-03 08:01:47 51°14.223 2°55.317 -999 2.519907 26.774445 5.117896
2006-03-03 08:02:47 51°14.338 2°55.108 -999 2.464941 26.186665 4.308871
2006-03-03 08:03:47 51°14.399 2°54.817 -999 2.531067 26.979335 4.207742
2006-03-03 08:04:47 51°14.409 2°54.467 -999 2.656524 28.486513 4.34258
2006-03-03 08:05:47 51°14.328 2°54.128 -999 2.736838 29.495236 3.600973
2006-03-03 08:06:47 51°14.205 2°53.813 -999 2.780257 30.024855 4.140324
2006-03-03 08:07:47 51°14.098 2°53.479 -999 2.79287 30.172209 3.634683
2006-03-03 08:08:47 51°13.963 2°53.166 -999 2.788011 30.165181 3.297589
2006-03-03 08:09:47 51°13.849 2°52.829 -999 2.786357 30.134365 3.668392
2006-03-03 08:10:47 51°13.714 2°52.515 -999 2.792043 30.170679 3.702101
2006-03-03 08:11:47 51°13.593 2°52.187 -999 2.792043 30.174376 3.702101
2006-03-03 08:12:47 51°13.473 2°51.859 -999 2.79225 30.172217 3.870648
2006-03-03 08:13:47 51°13.341 2°51.541 -999 2.794317 30.211648 3.76952
2006-03-03 08:14:47 51°13.226 2°51.207 -999 2.797522 30.24335 3.836939
2006-03-03 08:15:47 51°13.092 2°50.891 -999 2.79194 30.182393 3.904358
2006-03-03 08:16:47 51°12.975 2°50.558 -999 2.796178 30.241238 3.904358
2006-03-03 08:17:47 51°12.847 2°50.234 -999 2.783256 30.107564 3.904358
2006-03-03 08:18:47 51°12.722 2°49.908 -999 2.782119 30.110638 3.904358
2006-03-03 08:19:47 51°12.606 2°49.575 -999 2.787495 30.178462 4.106614
2006-03-03 08:20:47 51°12.485 2°49.248 -999 2.794525 30.253059 4.140324
2006-03-03 08:21:47 51°12.385 2°48.903 -999 2.795145 30.25396 4.241452
2006-03-03 08:22:47 51°12.278 2°48.562 -999 2.794628 30.261723 4.039195
2006-03-03 08:23:47 51°12.179 2°48.215 -999 2.793181 30.245379 4.005486
2006-03-03 08:24:47 51°12.082 2°47.867 -999 2.794731 30.261099 4.039195
2006-03-03 08:25:47 51°11.983 2°47.52 -999 2.796696 30.296631 4.039195
2006-03-03 08:26:47 51°11.895 2°47.167 -999 2.795249 30.284001 4.039195
2006-03-03 08:27:47 51°11.806 2°46.813 -999 2.789976 30.234057 4.005486
2006-03-03 08:28:47 51°11.714 2°46.462 -999 2.790183 30.245821 4.005486
2006-03-03 08:29:47 51°11.626 2°46.108 -999 2.79866 30.348046 3.971777
2006-03-03 08:30:47 51°11.54 2°45.752 -999 2.794732 30.312281 3.971777
2006-03-03 08:31:47 51°11.442 2°45.405 -999 2.798247 30.361772 3.938067
2006-03-03 08:32:47 51°11.349 2°45.054 -999 2.808275 30.45643 3.870648
2006-03-03 08:33:47 51°11.253 2°44.705 -999 2.816133 30.530675 3.904358
2006-03-03 08:34:47 51°11.158 2°44.358 -999 2.818304 30.550057 3.904358
2006-03-03 08:35:47 51°11.071 2°44.005 -999 2.817063 30.536169 4.039195
2006-03-03 08:36:47 51°10.984 2°43.653 -999 2.817063 30.541796 4.005486
2006-03-03 08:37:47 51°10.899 2°43.3 -999 2.821406 30.590883 3.971777
2006-03-03 08:38:47 51°10.819 2°42.944 -999 2.834123 30.697693 4.443708
2006-03-03 08:39:47 51°10.734 2°42.591 -999 2.837535 30.720549 4.409999
2006-03-03 08:40:47 51°10.653 2°42.234 -999 2.85263 30.858282 4.679674
2006-03-03 08:41:47 51°10.569 2°41.88 -999 2.857696 30.892268 4.747093
2006-03-03 08:42:47 51°10.476 2°41.534 -999 2.860695 30.922352 4.578546
2006-03-03 08:43:47 51°10.388 2°41.184 -999 2.862866 30.939732 4.747093
2006-03-03 08:44:47 51°10.302 2°40.833 -999 2.85842 30.908459 5.050477
2006-03-03 08:45:47 51°10.22 2°40.481 -999 2.855008 30.881932 5.117896
2006-03-03 08:46:47 51°10.136 2°40.13 -999 2.843221 30.756403 5.050477
2006-03-03 08:47:47 51°10.05 2°39.779 -999 2.84622 30.799718 4.88193
2006-03-03 08:48:47 51°9.955 2°39.435 -999 2.839912 30.731048 5.050477
2006-03-03 08:49:47 51°9.868 2°39.085 -999 2.842394 30.743712 5.320153
2006-03-03 08:50:47 51°9.772 2°38.741 -999 2.847357 30.793491 5.320153
2006-03-03 08:51:47 51°9.677 2°38.405 -999 2.842807 30.738296 5.320153
2006-03-03 08:52:47 51°9.605 2°38.19 -999 2.842497 30.743064 5.320153
2006-03-03 08:53:47 51°9.554 2°38.028 -999 2.837224 30.683936 5.151606
2006-03-03 08:54:47 51°9.519 2°37.92 -999 2.843428 30.760753 5.050477
2006-03-03 08:55:48 51°9.517 2°37.887 -999 2.844669 30.778383 4.88193
2006-03-03 08:56:47 51°9.519 2°37.864 -999 2.851906 30.856257 4.983059
2006-03-03 08:57:47 51°9.52 2°37.839 -999 2.85718 30.911622 5.117896
2006-03-03 08:58:47 51°9.519 2°37.808 -999 2.848701 30.803868 5.151606
2006-03-03 08:59:47 51°9.514 2°37.774 -999 2.858317 30.914789 5.151606
2006-03-03 09:00:47 51°9.509 2°37.739 -999 2.857696 30.908333 5.117896
2006-03-03 09:01:47 51°9.499 2°37.702 -999 2.855732 30.884898 5.219024
2006-03-03 09:02:47 51°9.483 2°37.666 -999 2.854181 30.859789 5.286443
2006-03-03 09:03:47 51°9.467 2°37.632 -999 2.859661 30.923258 5.286443
2006-03-03 09:04:47 51°9.453 2°37.597 -999 2.864417 30.974314 5.353862
2006-03-03 09:05:47 51°9.44 2°37.56 -999 2.864728 30.974226 5.387571
2006-03-03 09:06:47 51°9.427 2°37.525 -999 2.864934 30.971958 5.4887
2006-03-03 09:07:47 51°9.415 2°37.488 -999 2.863073 30.946926 5.657247
2006-03-03 09:08:47 51°9.404 2°37.451 -999 2.864831 30.966939 5.792084
2006-03-03 09:09:47 51°9.393 2°37.413 -999 2.860385 30.920544 5.522409
2006-03-03 09:10:47 51°9.381 2°37.375 -999 2.8639 30.96436 5.387571
2006-03-03 09:11:47 51°9.371 2°37.337 -999 2.859041 30.911132 5.084187
2006-03-03 09:12:47 51°9.36 2°37.298 -999 2.856973 30.890249 4.88193
2006-03-03 09:13:47 51°9.349 2°37.259 -999 2.853457 30.848328 4.814512
2006-03-03 09:14:47 51°9.339 2°37.218 -999 2.858937 30.909899 4.814512
2006-03-03 09:15:47 51°9.33 2°37.177 -999 2.861729 30.936573 4.814512
2006-03-03 09:16:47 51°9.321 2°37.136 -999 2.860074 30.914955 4.848221
2006-03-03 09:17:47 51°9.312 2°37.095 -999 2.860281 30.912696 4.848221
2006-03-03 09:18:47 51°9.304 2°37.053 -999 2.861212 30.9219 4.747093
2006-03-03 09:19:47 51°9.296 2°37.012 -999 2.862349 30.934514 4.747093
2006-03-03 09:20:47 51°9.288 2°36.97 -999 2.849838 30.788234 4.747093
2006-03-03 09:21:47 51°9.281 2°36.929 -999 2.866899 30.986863 4.747093
2006-03-03 09:22:47 51°9.273 2°36.886 -999 2.86938 31.015506 4.747093
2006-03-03 09:23:47 51°9.265 2°36.844 -999 2.861315 30.916519 4.747093
2006-03-03 09:24:47 51°9.258 2°36.801 -999 2.866278 30.974733 4.747093
2006-03-03 09:25:47 51°9.251 2°36.758 -999 2.862763 30.933773 4.747093
2006-03-03 09:26:47 51°9.243 2°36.716 -999 2.859144 30.892529 4.747093
2006-03-03 09:27:47 51°9.237 2°36.673 -999 2.866485 30.981932 4.780802
2006-03-03 09:28:47 51°9.229 2°36.63 -999 2.867312 30.996531 4.780802
2006-03-03 09:29:47 51°9.222 2°36.587 -999 2.865968 30.983342 4.780802
2006-03-03 09:30:47 51°9.215 2°36.544 -999 2.864934 30.968172 4.780802
2006-03-03 09:31:47 51°9.208 2°36.501 -999 2.863693 30.946756 4.747093
2006-03-03 09:32:47 51°9.201 2°36.457 -999 2.86876 31.005266 4.747093
2006-03-03 09:33:47 51°9.194 2°36.413 -999 2.855008 30.839473 4.747093
2006-03-03 09:34:47 51°9.187 2°36.369 -999 2.876722 31.095464 4.713383
2006-03-03 09:35:47 51°9.181 2°36.324 -999 2.877136 31.099446 4.679674
2006-03-03 09:36:47 51°9.174 2°36.28 -999 2.875688 31.084082 4.713383
2006-03-03 09:37:47 51°9.168 2°36.236 -999 2.875274 31.082948 4.713383
2006-03-03 09:38:47 51°9.162 2°36.176 -999 2.877756 31.109697 4.679674
2006-03-03 09:39:47 51°9.166 2°36.092 -999 2.871759 31.048611 4.612255
2006-03-03 09:40:47 51°9.187 2°36.01 -999 2.862763 30.968785 4.511127
2006-03-03 09:41:47 51°9.219 2°35.953 -999 2.855629 30.904463 4.443708
2006-03-03 09:42:47 51°9.253 2°35.93 -999 2.854595 30.895905 4.376289
2006-03-03 09:43:47 51°9.275 2°35.936 -999 2.856352 30.911211 4.34258
2006-03-03 09:44:47 51°9.281 2°35.961 -999 2.859765 30.938684 4.409999
2006-03-03 09:45:47 51°9.264 2°35.992 -999 2.862556 30.956847 4.443708
2006-03-03 09:46:47 51°9.225 2°36.013 -999 2.862349 30.95154 4.443708
2006-03-03 09:47:47 51°9.171 2°36.006 -999 2.863797 30.965967 4.477418
2006-03-03 09:48:47 51°9.112 2°35.959 -999 2.863487 30.966054 4.409999
2006-03-03 09:49:47 51°9.069 2°35.866 -999 2.856249 30.9043 4.308871
2006-03-03 09:50:47 51°9.06 2°35.755 -999 2.853044 30.878336 4.308871
2006-03-03 09:51:47 51°9.081 2°35.667 -999 2.856869 30.921168 4.376289
2006-03-03 09:52:47 51°9.113 2°35.625 -999 2.86266 30.981768 4.409999
2006-03-03 09:53:47 51°9.132 2°35.625 -999 2.860488 30.957741 4.34258
2006-03-03 09:54:47 51°9.135 2°35.652 -999 2.861729 30.964024 4.376289
2006-03-03 09:55:47 51°9.12 2°35.688 -999 2.864417 30.984736 4.376289
2006-03-03 09:56:47 51°9.084 2°35.714 -999 2.867416 31.008189 4.443708
2006-03-03 09:57:47 51°9.031 2°35.711 -999 2.862246 30.955986 4.308871
2006-03-03 09:58:47 51°8.973 2°35.663 -999 2.857697 30.917792 4.275161
2006-03-03 09:59:47 51°8.93 2°35.567 -999 2.855629 30.906356 4.275161
2006-03-03 10:00:47 51°8.918 2°35.453 -999 2.855939 30.915737 4.241452
2006-03-03 10:01:47 51°8.936 2°35.353 -999 2.854905 30.912858 4.174033
2006-03-03 10:02:47 51°8.971 2°35.286 -999 2.856146 30.922941 4.241452
2006-03-03 10:03:47 51°8.996 2°35.16 -999 2.864728 31.000764 4.34258
2006-03-03 10:04:47 51°8.946 2°35.039 -999 2.870932 31.048234 4.477418
2006-03-03 10:05:47 51°8.875 2°35.059 -999 2.877653 31.103712 4.544836
2006-03-03 10:06:47 51°8.876 2°35.136 -999 2.866382 31.00249 4.308871
2006-03-03 10:07:47 51°8.887 2°35.157 -999 2.859765 30.942471 4.207742
2006-03-03 10:08:47 51°8.902 2°35.144 -999 2.859868 30.939918 4.174033
2006-03-03 10:09:47 51°8.917 2°35.106 -999 2.858834 30.926633 4.174033
2006-03-03 10:10:47 51°8.928 2°35.049 -999 2.85842 30.919806 4.207742
2006-03-03 10:11:47 51°8.937 2°34.972 -999 2.860592 30.942875 4.241452
2006-03-03 10:12:47 51°8.943 2°34.876 -999 2.865658 30.985326 4.34258
2006-03-03 10:13:47 51°8.902 2°34.739 -999 2.873516 31.055341 4.443708
2006-03-03 10:14:48 51°8.821 2°34.751 -999 2.885201 31.162333 4.544836
2006-03-03 10:15:47 51°8.777 2°34.876 -999 2.885614 31.16536 4.544836
2006-03-03 10:16:47 51°8.739 2°35.032 -999 2.875481 31.078767 4.477418
2006-03-03 10:17:47 51°8.709 2°35.19 -999 2.867209 31.023745 4.376289
2006-03-03 10:18:47 51°8.752 2°35.326 -999 2.861626 30.974164 4.207742
2006-03-03 10:19:47 51°8.769 2°35.445 -999 2.866279 31.015484 4.679674
2006-03-03 10:20:47 51°8.761 2°35.528 -999 2.869484 31.04615 4.91564
2006-03-03 10:21:47 51°8.745 2°35.599 -999 2.867416 31.026213 4.814512
2006-03-03 10:22:47 51°8.736 2°35.666 -999 2.867313 31.026877 4.848221
2006-03-03 10:23:47 51°8.743 2°35.736 -999 2.867933 31.030486 4.91564
2006-03-03 10:24:47 51°8.765 2°35.802 -999 2.869794 31.048903 5.117896
2006-03-03 10:25:47 51°8.793 2°35.869 -999 2.868967 31.040929 5.219024
2006-03-03 10:26:47 51°8.83 2°35.92 -999 2.865038 30.997828 5.151606
2006-03-03 10:27:47 51°8.876 2°35.957 -999 2.856456 30.898258 4.848221
2006-03-03 10:28:47 51°8.912 2°36 -999 2.855525 30.882431 5.151606
2006-03-03 10:29:47 51°8.94 2°36.05 -999 2.856456 30.885028 5.151606
2006-03-03 10:30:47 51°8.967 2°36.101 -999 2.856352 30.876241 5.185315
2006-03-03 10:31:47 51°8.995 2°36.152 -999 2.853974 30.850718 5.050477
2006-03-03 10:32:47 51°9.016 2°36.207 -999 2.856145 30.873776 4.949349
2006-03-03 10:33:47 51°9.039 2°36.262 -999 2.853664 30.851737 4.747093
2006-03-03 10:34:47 51°9.065 2°36.321 -999 2.840739 30.71552 4.443708
2006-03-03 10:35:47 51°9.088 2°36.387 -999 2.844358 30.75679 4.477418
2006-03-03 10:36:47 51°9.114 2°36.45 -999 2.843841 30.750625 4.477418
2006-03-03 10:37:47 51°9.139 2°36.515 -999 2.843634 30.746278 4.511127
2006-03-03 10:38:47 51°9.166 2°36.579 -999 2.84808 30.795528 4.511127
2006-03-03 10:39:47 51°9.195 2°36.641 -999 2.846116 30.77022 4.409999
2006-03-03 10:40:47 51°9.216 2°36.707 -999 2.85263 30.842238 4.409999
2006-03-03 10:41:47 51°9.24 2°36.77 -999 2.851493 30.831504 4.376289
2006-03-03 10:42:47 51°9.267 2°36.831 -999 2.847357 30.782189 4.275161
2006-03-03 10:43:47 51°9.287 2°36.896 -999 2.852216 30.840135 4.409999
2006-03-03 10:44:47 51°9.307 2°36.963 -999 2.856145 30.884163 4.443708
2006-03-03 10:45:47 51°9.332 2°37.026 -999 2.85356 30.854278 4.376289
2006-03-03 10:46:47 51°9.354 2°37.091 -999 2.855215 30.869288 4.376289
2006-03-03 10:47:47 51°9.371 2°37.16 -999 2.860695 30.925188 4.409999
2006-03-03 10:48:47 51°9.397 2°37.222 -999 2.859351 30.901603 4.308871
2006-03-03 10:49:47 51°9.424 2°37.284 -999 2.862659 30.92876 4.34258
2006-03-03 10:50:47 51°9.447 2°37.35 -999 2.872276 31.032964 4.511127
2006-03-03 10:51:47 51°9.466 2°37.419 -999 2.87848 31.09458 4.544836
2006-03-03 10:52:47 51°9.484 2°37.489 -999 2.884063 31.139276 4.477418
2006-03-03 10:53:47 51°9.509 2°37.555 -999 2.886028 31.160782 4.544836
2006-03-03 10:54:48 51°9.531 2°37.624 -999 2.885718 31.158987 4.713383
2006-03-03 10:55:47 51°9.539 2°37.698 -999 2.88458 31.153038 4.88193
2006-03-03 10:56:47 51°9.55 2°37.772 -999 2.88396 31.147545 4.949349
2006-03-03 10:57:47 51°9.553 2°37.853 -999 2.88427 31.14744 5.050477
2006-03-03 10:58:47 51°9.539 2°37.936 -999 2.883857 31.147264 5.219024
2006-03-03 10:59:48 51°9.495 2°38.007 -999 2.88427 31.151242 5.320153
2006-03-03 11:00:47 51°9.452 2°38.047 -999 2.884684 31.155221 5.185315
2006-03-03 11:01:48 51°9.433 2°38.117 -999 2.884477 31.148954 5.117896
2006-03-03 11:02:47 51°9.504 2°38.147 -999 2.881788 31.121669 5.286443
2006-03-03 11:03:47 51°9.623 2°38.096 -999 2.883236 31.125623 4.983059
2006-03-03 11:04:48 51°9.711 2°37.956 -999 2.880444 31.115147 5.050477
2006-03-03 11:05:47 51°9.683 2°37.814 -999 2.876205 31.071263 4.747093
2006-03-03 11:06:47 51°9.629 2°37.702 -999 2.87424 31.047848 4.511127
2006-03-03 11:07:48 51°9.568 2°37.588 -999 2.873827 31.044815 4.443708
2006-03-03 11:08:47 51°9.511 2°37.457 -999 2.875274 31.064914 4.578546
2006-03-03 11:09:48 51°9.48 2°37.298 -999 2.877239 31.087384 4.544836
2006-03-03 11:10:47 51°9.489 2°37.156 -999 2.879307 31.104439 4.443708
2006-03-03 11:11:47 51°9.501 2°37.033 -999 2.87941 31.11137 4.511127
2006-03-03 11:12:47 51°9.5 2°36.921 -999 2.881168 31.126625 4.544836
2006-03-03 11:13:47 51°9.493 2°36.816 -999 2.881065 31.124442 4.443708
2006-03-03 11:14:47 51°9.483 2°36.722 -999 2.881065 31.123492 4.376289
2006-03-03 11:15:47 51°9.465 2°36.638 -999 2.881271 31.122157 4.275161
2006-03-03 11:16:47 51°9.446 2°36.565 -999 2.881168 31.120924 4.241452
2006-03-03 11:17:48 51°9.425 2°36.491 -999 2.881168 31.119975 4.207742
2006-03-03 11:18:47 51°9.403 2°36.417 -999 2.881478 31.121772 4.140324
2006-03-03 11:19:47 51°9.376 2°36.341 -999 2.881788 31.122619 4.106614
2006-03-03 11:20:47 51°9.349 2°36.266 -999 2.882409 31.129062 4.106614
2006-03-03 11:21:47 51°9.322 2°36.193 -999 2.882822 31.133991 4.140324
2006-03-03 11:22:47 51°9.297 2°36.12 -999 2.883236 31.141771 4.140324
2006-03-03 11:23:47 51°9.273 2°36.048 -999 2.88334 31.141102 4.140324
2006-03-03 11:24:48 51°9.248 2°35.975 -999 2.883753 31.145081 4.106614
2006-03-03 11:25:48 51°9.223 2°35.904 -999 2.88427 31.149341 4.106614
2006-03-03 11:26:48 51°9.198 2°35.833 -999 2.885614 31.160606 4.106614
2006-03-03 11:27:47 51°9.173 2°35.764 -999 2.887062 31.175954 4.140324
2006-03-03 11:28:48 51°9.147 2°35.694 -999 2.887372 31.175846 4.140324
2006-03-03 11:29:47 51°9.122 2°35.626 -999 2.887889 31.180104 4.140324
2006-03-03 11:30:48 51°9.095 2°35.555 -999 2.888303 31.185032 4.106614
2006-03-03 11:31:47 51°9.07 2°35.487 -999 2.888613 31.187777 4.106614
2006-03-03 11:32:47 51°9.045 2°35.418 -999 2.889544 31.190303 4.072905
2006-03-03 11:33:47 51°9.02 2°35.347 -999 2.890267 31.197974 4.140324
2006-03-03 11:34:48 51°8.994 2°35.274 -999 2.890888 31.20251 4.140324
2006-03-03 11:35:48 51°8.97 2°35.204 -999 2.892025 31.205593 4.106614
2006-03-03 11:36:47 51°8.945 2°35.134 -999 2.892335 31.208336 4.140324
2006-03-03 11:37:48 51°8.92 2°35.061 -999 2.891508 31.199437 4.140324
2006-03-03 11:38:48 51°8.896 2°34.99 -999 2.890888 31.191099 4.140324
2006-03-03 11:39:47 51°8.871 2°34.922 -999 2.889337 31.172633 4.106614
2006-03-03 11:40:48 51°8.843 2°34.853 -999 2.88882 31.167427 4.106614
2006-03-03 11:41:47 51°8.816 2°34.79 -999 2.888716 31.166196 4.140324
2006-03-03 11:42:48 51°8.787 2°34.725 -999 2.889854 31.176888 4.241452
2006-03-03 11:43:47 51°8.76 2°34.663 -999 2.889337 31.170733 4.241452
2006-03-03 11:44:48 51°8.733 2°34.59 -999 2.88882 31.162679 4.275161
2006-03-03 11:45:47 51°8.713 2°34.504 -999 2.884993 31.10861 4.140324
2006-03-03 11:46:47 51°8.701 2°34.409 -999 2.885407 31.115427 4.207742
2006-03-03 11:47:47 51°8.697 2°34.315 -999 2.886855 31.136447 4.241452
2006-03-03 11:48:48 51°8.705 2°34.223 -999 2.887475 31.141933 4.241452
2006-03-03 11:49:48 51°8.729 2°34.146 -999 2.888199 31.139164 4.174033
2006-03-03 11:50:48 51°8.761 2°34.094 -999 2.891301 31.171326 4.106614
2006-03-03 11:51:48 51°8.787 2°34.069 -999 2.896782 31.238438 4.039195
2006-03-03 11:52:48 51°8.824 2°34.114 -999 2.897609 31.25685 3.971777
2006-03-03 11:53:47 51°8.86 2°34.246 -999 2.895438 31.249086 3.938067
2006-03-03 11:54:47 51°8.901 2°34.371 -999 2.896782 31.259381 3.938067
2006-03-03 11:55:47 51°8.9 2°34.479 -999 2.897299 31.272209 3.971777
2006-03-03 11:56:48 51°8.899 2°34.573 -999 2.897713 31.278089 3.971777
2006-03-03 11:57:47 51°8.897 2°34.66 -999 2.898747 31.282779 3.938067
2006-03-03 11:58:48 51°8.889 2°34.747 -999 2.899264 31.289891 3.971777
2006-03-03 11:59:47 51°8.884 2°34.828 -999 2.899884 31.277265 3.870648
2006-03-03 12:00:48 51°8.877 2°34.91 -999 2.900297 31.246982 3.702101
2006-03-03 12:01:48 51°8.872 2°34.99 -999 2.898643 31.214018 3.668392
2006-03-03 12:02:48 51°8.87 2°35.07 -999 2.897815 31.194703 3.634683
2006-03-03 12:03:48 51°8.867 2°35.152 -999 2.895644 31.187865 3.668392
2006-03-03 12:04:47 51°8.866 2°35.234 -999 2.894713 31.188186 3.735811
2006-03-03 12:05:48 51°8.865 2°35.319 -999 2.895334 31.191767 3.76952
2006-03-03 12:06:47 51°8.865 2°35.403 -999 2.896161 31.193062 3.735811
2006-03-03 12:07:48 51°8.865 2°35.49 -999 2.898539 31.189084 3.735811
2006-03-03 12:08:47 51°8.868 2°35.574 -999 2.896161 31.161789 3.735811
2006-03-03 12:09:48 51°8.87 2°35.661 -999 2.896264 31.153553 3.76952
2006-03-03 12:10:48 51°8.876 2°35.748 -999 2.896781 31.152122 3.735811
2006-03-03 12:11:47 51°8.885 2°35.832 -999 2.897608 31.160048 3.76952
2006-03-03 12:12:48 51°8.895 2°35.92 -999 2.89585 31.163786 3.80323
2006-03-03 12:13:47 51°8.903 2°36.006 -999 2.892749 31.161983 3.870648
2006-03-03 12:14:48 51°8.912 2°36.096 -999 2.890887 31.157867 3.870648
2006-03-03 12:15:47 51°8.922 2°36.183 -999 2.88975 31.153823 3.870648
2006-03-03 12:16:47 51°8.942 2°36.266 -999 2.888613 31.139343 3.80323
2006-03-03 12:17:47 51°8.964 2°36.351 -999 2.887579 31.134627 3.80323
2006-03-03 12:18:47 51°8.986 2°36.437 -999 2.887165 31.13919 3.971777
2006-03-03 12:19:47 51°9.008 2°36.525 -999 2.885511 31.130883 4.005486
2006-03-03 12:20:48 51°9.031 2°36.614 -999 2.884477 31.119522 3.971777
2006-03-03 12:21:47 51°9.053 2°36.701 -999 2.883546 31.1056 3.870648
2006-03-03 12:22:47 51°9.073 2°36.792 -999 2.881788 31.092258 3.870648
2006-03-03 12:23:48 51°9.094 2°36.884 -999 2.881064 31.086485 3.870648
2006-03-03 12:24:47 51°9.115 2°36.975 -999 2.88003 31.07228 3.836939
2006-03-03 12:25:47 51°9.136 2°37.066 -999 2.878686 31.058173 3.80323
2006-03-03 12:26:47 51°9.157 2°37.16 -999 2.878169 31.053912 3.836939
2006-03-03 12:27:47 51°9.18 2°37.253 -999 2.877135 31.040657 3.80323
2006-03-03 12:28:47 51°9.202 2°37.349 -999 2.875377 31.022572 3.80323
2006-03-03 12:29:48 51°9.225 2°37.446 -999 2.873413 31.007697 3.836939
2006-03-03 12:30:48 51°9.252 2°37.538 -999 2.871965 30.990463 3.836939
2006-03-03 12:31:47 51°9.278 2°37.623 -999 2.870104 30.972086 3.836939
2006-03-03 12:32:48 51°9.306 2°37.698 -999 2.868036 30.961635 3.870648
2006-03-03 12:33:48 51°9.334 2°37.759 -999 2.866898 30.944312 3.80323
2006-03-03 12:34:47 51°9.365 2°37.813 -999 2.865658 30.933315 3.80323
2006-03-03 12:35:47 51°9.398 2°37.866 -999 2.864313 30.923915 3.80323
2006-03-03 12:36:48 51°9.429 2°37.923 -999 2.863176 30.920752 3.870648
2006-03-03 12:37:48 51°9.456 2°37.986 -999 2.861935 30.911635 3.870648
2006-03-03 12:38:48 51°9.474 2°38.057 -999 2.860902 30.909701 3.870648
2006-03-03 12:39:48 51°9.488 2°38.129 -999 2.860074 30.891349 3.80323
2006-03-03 12:40:47 51°9.498 2°38.202 -999 2.859454 30.877356 3.735811
2006-03-03 12:41:47 51°9.501 2°38.286 -999 2.858213 30.866348 3.76952
2006-03-03 12:42:47 51°9.484 2°38.369 -999 2.857076 30.864112 3.80323
2006-03-03 12:43:47 51°9.462 2°38.434 -999 2.855732 30.855638 3.836939
2006-03-03 12:44:47 51°9.446 2°38.491 -999 2.854904 30.847665 3.836939
2006-03-03 12:45:47 51°9.434 2°38.543 -999 2.854801 30.843605 3.80323
2006-03-03 12:46:47 51°9.425 2°38.59 -999 2.854904 30.839183 3.836939
2006-03-03 12:47:48 51°9.416 2°38.637 -999 2.85387 30.834401 3.836939
2006-03-03 12:48:48 51°9.409 2°38.704 -999 2.85294 30.831792 3.870648
2006-03-03 12:49:47 51°9.425 2°38.79 -999 2.849425 30.802134 3.870648
2006-03-03 12:50:48 51°9.478 2°39.007 -999 2.844772 30.739149 3.836939
2006-03-03 12:51:48 51°9.528 2°39.345 -999 2.840636 30.716167 3.971777
2006-03-03 12:52:48 51°9.584 2°39.697 -999 2.840429 30.669591 3.836939
2006-03-03 12:53:48 51°9.642 2°40.048 -999 2.840635 30.647707 3.76952
2006-03-03 12:54:48 51°9.703 2°40.398 -999 2.838464 30.645265 7.073042
2006-03-03 12:55:48 51°9.765 2°40.749 -999 2.838257 30.641867 8.219161
2006-03-03 12:56:47 51°9.827 2°41.095 -999 2.838257 30.640931 7.949486
2006-03-03 12:57:48 51°9.892 2°41.456 -999 2.838361 30.641226 7.544973
2006-03-03 12:58:48 51°9.958 2°41.812 -999 2.838671 30.639302 7.17417
2006-03-03 12:59:48 51°10.029 2°42.165 -999 2.839084 30.632996 6.870785
2006-03-03 13:00:48 51°10.139 2°42.496 -999 2.840015 30.622564 6.769657
2006-03-03 13:01:48 51°10.248 2°42.828 -999 2.841359 30.622663 6.735947
2006-03-03 13:02:48 51°10.355 2°43.16 -999 2.843013 30.61432 6.735947
2006-03-03 13:03:47 51°10.462 2°43.478 -999 2.84477 30.61654 6.769657
2006-03-03 13:04:48 51°10.575 2°43.809 -999 2.846838 30.623371 6.837076
2006-03-03 13:05:48 51°10.687 2°44.136 -999 2.849113 30.629855 6.904494
2006-03-03 13:06:48 51°10.805 2°44.463 -999 2.851491 30.643146 6.971913
2006-03-03 13:07:47 51°10.923 2°44.784 -999 2.854075 30.654223 7.039332
2006-03-03 13:08:48 51°11.043 2°45.117 -999 2.856557 30.663136 7.106751
2006-03-03 13:09:48 51°11.155 2°45.449 -999 2.859142 30.674194 7.14046
2006-03-03 13:10:48 51°11.271 2°45.779 -999 2.861726 30.679666 7.17417
2006-03-03 13:11:48 51°11.386 2°46.108 -999 2.864311 30.683275 7.17417
2006-03-03 13:12:48 51°11.502 2°46.431 -999 2.866792 30.685663 7.207879
2006-03-03 13:13:48 51°11.615 2°46.754 -999 2.869377 30.691127 7.207879
2006-03-03 13:14:48 51°11.73 2°47.081 -999 2.871859 30.692588 7.241589
2006-03-03 13:15:48 51°11.845 2°47.41 -999 2.87434 30.704237 7.241589
2006-03-03 13:16:48 51°11.962 2°47.739 -999 2.876718 30.710956 7.275298
2006-03-03 13:17:48 51°12.079 2°48.07 -999 2.879096 30.713969 7.275298
2006-03-03 13:18:48 51°12.196 2°48.402 -999 2.881267 30.714549 7.309007
2006-03-03 13:19:48 51°12.314 2°48.735 -999 2.883439 30.723447 7.342717
2006-03-03 13:20:48 51°12.431 2°49.072 -999 2.885403 30.731755 7.376426
2006-03-03 13:21:48 51°12.551 2°49.407 -999 2.887471 30.736656 7.376426
2006-03-03 13:22:48 51°12.67 2°49.746 -999 2.889436 30.739417 7.342717
2006-03-03 13:23:48 51°12.789 2°50.085 -999 2.8914 30.742177 7.309007
2006-03-03 13:24:48 51°12.913 2°50.418 -999 2.893261 30.745568 7.275298
2006-03-03 13:25:48 51°13.047 2°50.741 -999 2.895123 30.747116 7.241589
2006-03-03 13:26:48 51°13.183 2°51.061 -999 2.896984 30.750505 7.241589
2006-03-03 13:27:48 51°13.318 2°51.384 -999 2.898741 30.754523 7.241589
2006-03-03 13:28:48 51°13.452 2°51.71 -999 2.900396 30.756409 7.207879
2006-03-03 13:29:48 51°13.588 2°52.033 -999 2.90205 30.758295 7.207879
2006-03-03 13:30:48 51°13.723 2°52.357 -999 2.903601 30.759891 7.207879
2006-03-03 13:31:48 51°13.855 2°52.672 -999 2.905256 30.759941 7.207879
2006-03-03 13:32:48 51°13.94 2°52.88 -999 2.906807 30.763374 7.17417
2006-03-03 13:33:48 51°14.036 2°53.106 -999 2.908358 30.763137 7.17417
2006-03-03 13:34:48 51°14.158 2°53.438 -999 2.910012 30.764108 7.14046
2006-03-03 13:35:48 51°14.265 2°53.791 -999 2.911563 30.768455 7.14046
2006-03-03 13:36:48 51°14.364 2°54.151 -999 2.913114 30.769137 7.14046
2006-03-03 13:37:47 51°14.415 2°54.523 -999 2.914768 30.772856 7.106751
2006-03-03 13:38:48 51°14.39 2°54.876 -999 2.916216 30.773249 7.106751
2006-03-03 13:39:48 51°14.315 2°55.146 -999 2.917767 30.777591 7.073042
2006-03-03 13:40:48 51°14.217 2°55.316 -999 2.919318 30.781017 7.106751
2006-03-03 13:41:48 51°14.103 2°55.42 -999 2.920766 30.787808 7.073042
2006-03-03 13:42:48 51°13.99 2°55.507 -999 2.922317 30.793057 7.073042
2006-03-03 13:43:48 51°13.889 2°55.586 -999 2.923868 30.79739 7.073042
2006-03-03 13:44:48 51°13.8 2°55.658 -999 2.925419 30.800807 7.039332
2006-03-03 13:45:48 51°13.73 2°55.752 -999 2.927073 30.803599 7.073042
2006-03-03 13:46:47 51°13.677 2°55.862 -999 2.928728 30.804566 7.039332
2006-03-03 13:47:47 51°13.641 2°55.956 -999 2.930486 30.803999 7.039332
2006-03-03 13:48:47 51°13.62 2°56.03 -999 2.932347 30.801903 7.039332
2006-03-03 13:49:47 51°13.605 2°56.078 -999 2.934208 30.800723 7.039332
2006-03-03 13:50:47 51°13.598 2°56.091 -999 2.936069 30.805914 7.039332
2006-03-03 13:51:47 51°13.597 2°56.092 -999 2.938034 30.810481 7.039332
2006-03-03 13:52:47 51°13.596 2°56.095 -999 2.939999 30.811411 7.073042
2006-03-03 13:53:47 51°13.598 2°56.096 -999 2.941964 30.81325 7.073042
2006-03-03 13:54:47 51°13.598 2°56.095 -999 2.944032 30.818101 7.073042
2006-03-03 13:55:49 51°13.598 2°56.094 -999 2.945997 30.825382 7.073042
2006-03-03 13:56:51 51°13.599 2°56.095 -999 2.947961 30.829031 7.073042